Time;durP1;ratioP1;P1;durP2;ratioP2;P2;SDS_P1;SDS_P2;PMS_P1;PMS_P2;Temp;Humidity;BMP_temperature;BMP_pressure;BME280_temperature;BME280_humidity;BME280_pressure;Samples;Min_cycle;Max_cycle;Signal;HPM_P1;HPM_P2
2023/12/06 00:00:50;;;;;;;0.20;0.20;;;;;;;1.68;100.00;92305.13;2106442;28;20024;-83
2023/12/06 00:01:51;;;;;;;0.50;0.50;;;;;;;1.69;100.00;92301.34;2110407;27;20074;-81
2023/12/06 00:02:52;;;;;;;0.20;0.20;;;;;;;1.60;100.00;92298.34;2107837;28;20031;-83
2023/12/06 00:03:53;;;;;;;0.20;0.20;;;;;;;1.60;100.00;92301.75;2096138;28;20047;-81
2023/12/06 00:04:54;;;;;;;0.20;0.20;;;;;;;1.88;100.00;92297.53;2108663;27;20027;-83
2023/12/06 00:05:55;;;;;;;0.30;0.30;;;;;;;1.81;100.00;92295.69;2131206;27;20015;-82
2023/12/06 00:06:56;;;;;;;0.20;0.20;;;;;;;1.78;100.00;92301.72;2132586;27;20078;-82
2023/12/06 00:07:57;;;;;;;0.20;0.20;;;;;;;1.73;100.00;92304.72;2123244;27;20412;-82
2023/12/06 00:08:58;;;;;;;0.30;0.30;;;;;;;1.66;100.00;92302.09;2123061;27;20121;-80
2023/12/06 00:10:00;;;;;;;0.20;0.20;;;;;;;1.65;100.00;92290.06;2114465;28;20076;-82
2023/12/06 00:11:01;;;;;;;0.28;0.28;;;;;;;1.69;100.00;92304.72;2123702;27;20027;-83
2023/12/06 00:12:03;;;;;;;0.20;0.20;;;;;;;1.70;100.00;92302.84;2126996;27;20076;-81
2023/12/06 00:13:04;;;;;;;0.20;0.20;;;;;;;1.61;100.00;92299.84;2106517;28;20024;-82
2023/12/06 00:14:04;;;;;;;0.20;0.20;;;;;;;1.61;100.00;92292.69;2098334;28;20070;-83
2023/12/06 00:15:06;;;;;;;0.22;0.22;;;;;;;1.63;100.00;92297.59;2098007;28;20020;-80
2023/12/06 00:16:07;;;;;;;0.20;0.20;;;;;;;1.66;100.00;92302.09;2097914;28;20024;-83
2023/12/06 00:17:10;;;;;;;0.20;0.20;;;;;;;1.51;100.00;92296.88;2105802;27;20027;-81
2023/12/06 00:18:11;;;;;;;0.20;0.20;;;;;;;1.61;100.00;92303.25;2122464;27;20019;-82
2023/12/06 00:19:12;;;;;;;0.20;0.20;;;;;;;1.55;100.00;92302.13;2129574;27;20026;-82
2023/12/06 00:20:13;;;;;;;0.20;0.20;;;;;;;1.49;100.00;92296.50;2130869;27;20022;-81
2023/12/06 00:21:15;;;;;;;0.20;0.20;;;;;;;1.51;100.00;92301.38;2123341;27;20023;-81
2023/12/06 00:22:16;;;;;;;0.30;0.30;;;;;;;1.51;100.00;92296.88;2122785;27;20057;-83
2023/12/06 00:23:17;;;;;;;0.20;0.20;;;;;;;1.47;100.00;92301.38;2114724;28;20057;-82
2023/12/06 00:24:18;;;;;;;0.20;0.20;;;;;;;1.46;100.00;92299.88;2097897;28;20119;-80
2023/12/06 00:25:20;;;;;;;0.43;0.20;;;;;;;1.46;100.00;92297.25;2097758;28;20031;-82
2023/12/06 00:26:21;;;;;;;0.20;0.20;;;;;;;1.43;100.00;92295.38;2114873;27;20031;-82
2023/12/06 00:27:22;;;;;;;0.20;0.20;;;;;;;1.43;100.00;92303.25;2126080;27;20077;-81
2023/12/06 00:28:23;;;;;;;0.20;0.20;;;;;;;1.35;100.00;92301.75;2114127;28;20043;-81
2023/12/06 00:29:24;;;;;;;1.08;0.20;;;;;;;1.39;100.00;92299.13;2113336;27;20464;-81
2023/12/06 00:30:25;;;;;;;0.20;0.20;;;;;;;1.32;100.00;92297.25;2109496;28;20035;-83
2023/12/06 00:31:26;;;;;;;0.20;0.20;;;;;;;1.34;100.00;92299.50;2112789;27;20020;-83
2023/12/06 00:32:27;;;;;;;0.20;0.20;;;;;;;1.40;100.00;92309.28;2114598;28;20051;-80
2023/12/06 00:33:28;;;;;;;0.20;0.20;;;;;;;1.33;100.00;92298.75;2123254;27;20023;-82
2023/12/06 00:34:29;;;;;;;0.20;0.20;;;;;;;1.37;100.00;92309.28;2123381;27;20026;-83
2023/12/06 00:35:30;;;;;;;0.32;0.32;;;;;;;1.34;100.00;92302.91;2123420;27;20044;-80
2023/12/06 00:36:31;;;;;;;0.22;0.20;;;;;;;1.36;100.00;92313.81;2123172;27;20875;-82
2023/12/06 00:37:48;;;;;;;0.20;0.20;;;;;;;1.38;100.00;92313.44;2124453;27;20027;-83
2023/12/06 00:38:48;;;;;;;;;;;;;;;1.39;100.00;92315.66;2132172;27;20105;-81
2023/12/06 00:39:50;;;;;;;0.20;0.20;;;;;;;1.42;100.00;92312.28;2131361;27;19907;-83
2023/12/06 00:40:51;;;;;;;0.20;0.20;;;;;;;1.51;100.00;92315.28;2131330;27;20023;-82
2023/12/06 00:41:52;;;;;;;0.20;0.20;;;;;;;1.55;100.00;92310.03;2121840;27;20051;-82
2023/12/06 00:42:53;;;;;;;0.20;0.20;;;;;;;1.53;100.00;92309.63;2114402;28;20019;-81
2023/12/06 00:43:55;;;;;;;0.20;0.20;;;;;;;1.48;100.00;92313.41;2114840;28;20031;-82
2023/12/06 00:44:56;;;;;;;0.20;0.20;;;;;;;1.50;100.00;92311.16;2131703;27;20049;-80
2023/12/06 00:45:56;;;;;;;0.20;0.20;;;;;;;1.56;100.00;92318.69;2131102;27;20787;-81
2023/12/06 00:46:57;;;;;;;0.20;0.20;;;;;;;1.54;100.00;92324.34;2131476;27;20109;-83
2023/12/06 00:47:58;;;;;;;0.20;0.20;;;;;;;1.56;100.00;92318.69;2122861;27;20022;-81
2023/12/06 00:49:00;;;;;;;0.20;0.20;;;;;;;1.48;100.00;92315.28;2106075;28;20119;-81
2023/12/06 00:50:01;;;;;;;0.20;0.20;;;;;;;1.57;100.00;92318.28;2106205;28;20051;-83
2023/12/06 00:51:02;;;;;;;0.30;0.30;;;;;;;1.58;100.00;92311.13;2122885;27;20047;-82
2023/12/06 00:52:03;;;;;;;0.20;0.20;;;;;;;1.58;100.00;92319.03;2131237;27;20056;-83
2023/12/06 00:53:04;;;;;;;0.10;0.10;;;;;;;1.63;100.00;92318.69;2113898;28;20123;-81
2023/12/06 00:54:06;;;;;;;0.20;0.20;;;;;;;1.67;100.00;92322.06;2114064;28;20826;-82
2023/12/06 00:55:08;;;;;;;0.20;0.20;;;;;;;1.65;100.00;92319.78;2114474;28;20028;-81
2023/12/06 00:56:13;;;;;;;0.20;0.20;;;;;;;1.79;100.00;92316.38;2112643;27;20433;-80
2023/12/06 00:57:15;;;;;;;0.20;0.20;;;;;;;1.80;100.00;92322.41;2129138;27;20027;-80
2023/12/06 00:58:18;;;;;;;0.20;0.20;;;;;;;1.96;100.00;92315.59;2125485;27;21005;-83
2023/12/06 00:59:19;;;;;;;0.57;0.30;;;;;;;1.86;100.00;92318.25;2125533;27;20122;-82
2023/12/06 01:00:21;;;;;;;0.20;0.20;;;;;;;1.86;100.00;92313.75;2120320;27;20030;-83
2023/12/06 01:01:22;;;;;;;0.20;0.20;;;;;;;1.64;100.00;92317.53;2126444;27;20023;-82
2023/12/06 01:02:23;;;;;;;0.20;0.20;;;;;;;1.84;100.00;92318.63;2124223;27;20026;-83
2023/12/06 01:03:24;;;;;;;0.20;0.20;;;;;;;1.85;100.00;92320.16;2122207;27;20031;-82
2023/12/06 01:04:25;;;;;;;0.20;0.20;;;;;;;1.94;100.00;92325.78;2121664;27;20030;-81
2023/12/06 01:05:26;;;;;;;0.20;0.20;;;;;;;1.85;100.00;92322.03;2123285;27;20060;-84
2023/12/06 01:06:27;;;;;;;0.20;0.20;;;;;;;1.82;100.00;92335.94;2122732;27;20027;-81
2023/12/06 01:07:31;;;;;;;0.20;0.20;;;;;;;1.79;100.00;92326.91;2114327;28;20027;-82
2023/12/06 01:08:32;;;;;;;0.20;0.20;;;;;;;1.89;100.00;92325.38;2106456;28;20471;-83
2023/12/06 01:09:33;;;;;;;0.20;0.20;;;;;;;1.87;100.00;92325.03;2114777;27;20753;-82
2023/12/06 01:10:34;;;;;;;0.20;0.20;;;;;;;1.85;100.00;92329.94;2122797;27;20027;-81
2023/12/06 01:11:35;;;;;;;0.20;0.20;;;;;;;1.76;100.00;92333.72;2113993;28;20055;-81
2023/12/06 01:12:36;;;;;;;0.20;0.20;;;;;;;1.73;100.00;92331.81;2114248;28;20050;-81
2023/12/06 01:13:37;;;;;;;0.20;0.20;;;;;;;1.78;100.00;92338.59;2114535;27;20027;-82
2023/12/06 01:14:39;;;;;;;0.20;0.20;;;;;;;1.72;100.00;92342.75;2122919;27;20077;-81
2023/12/06 01:15:40;;;;;;;0.30;0.30;;;;;;;1.83;100.00;92348.00;2123024;27;20019;-82
2023/12/06 01:16:40;;;;;;;0.30;0.30;;;;;;;1.68;100.00;92336.72;2122755;27;20107;-83
2023/12/06 01:17:41;;;;;;;0.20;0.20;;;;;;;2.00;100.00;92344.56;2122648;27;20027;-83
2023/12/06 01:18:42;;;;;;;0.43;0.20;;;;;;;1.93;100.00;92349.84;2121788;27;20056;-83
2023/12/06 01:19:43;;;;;;;0.75;0.28;;;;;;;1.92;100.00;92345.72;2114606;27;20020;-82
2023/12/06 01:20:44;;;;;;;0.30;0.30;;;;;;;1.71;100.00;92344.63;2114376;28;20035;-82
2023/12/06 01:21:45;;;;;;;0.20;0.20;;;;;;;1.79;100.00;92342.72;2114194;28;20024;-82
2023/12/06 01:25:17;;;;;;;0.20;0.20;;;;;;;1.72;100.00;92348.00;2130824;27;20061;-82
2023/12/06 01:26:18;;;;;;;0.20;0.20;;;;;;;1.73;100.00;92355.53;2126425;27;20347;-83
2023/12/06 01:27:28;;;;;;;0.40;0.40;;;;;;;1.83;100.00;92348.75;2109236;28;20460;-82
2023/12/06 01:28:29;;;;;;;0.43;0.40;;;;;;;1.74;100.00;92345.75;2114231;27;20457;-83
2023/12/06 01:29:30;;;;;;;0.30;0.30;;;;;;;1.77;100.00;92356.28;2113770;28;20059;-83
2023/12/06 01:30:31;;;;;;;0.30;0.30;;;;;;;1.81;100.00;92351.00;2120981;27;20035;-80
2023/12/06 01:31:33;;;;;;;0.30;0.30;;;;;;;1.88;100.00;92344.97;2126231;27;20041;-82
2023/12/06 01:32:34;;;;;;;0.20;0.20;;;;;;;1.79;100.00;92349.88;2124375;27;20023;-82
2023/12/06 01:33:35;;;;;;;0.50;0.50;;;;;;;1.76;100.00;92346.88;2124483;27;20018;-84
2023/12/06 01:34:36;;;;;;;0.45;0.45;;;;;;;1.74;100.00;92356.28;2108660;27;20020;-82
2023/12/06 01:35:37;;;;;;;0.30;0.30;;;;;;;1.71;100.00;92354.41;2122417;27;20019;-83
2023/12/06 01:36:38;;;;;;;0.30;0.30;;;;;;;1.72;100.00;92356.66;2114026;27;20015;-82
2023/12/06 01:37:39;;;;;;;0.40;0.30;;;;;;;1.86;100.00;92365.69;2113999;28;20080;-82
2023/12/06 01:38:40;;;;;;;0.28;0.28;;;;;;;2.04;100.00;92358.50;2105947;28;20028;-83
2023/12/06 01:39:41;;;;;;;0.30;0.30;;;;;;;1.96;100.00;92360.38;2113944;28;20024;-83
2023/12/06 01:40:43;;;;;;;0.20;0.20;;;;;;;1.95;100.00;92358.88;2122375;27;20087;-83
2023/12/06 01:41:50;;;;;;;0.30;0.30;;;;;;;1.98;100.00;92357.38;2122556;27;20030;-82
2023/12/06 01:42:51;;;;;;;0.40;0.20;;;;;;;2.00;100.00;92349.84;2114879;27;21034;-81
2023/12/06 01:43:52;;;;;;;0.30;0.30;;;;;;;1.98;100.00;92357.38;2108672;28;20150;-83
2023/12/06 01:44:53;;;;;;;0.38;0.38;;;;;;;2.02;100.00;92352.88;2105654;28;20026;-82
2023/12/06 01:45:54;;;;;;;0.45;0.45;;;;;;;1.88;100.00;92358.88;2117552;27;20030;-82
2023/12/06 01:47:04;;;;;;;0.30;0.30;;;;;;;1.75;100.00;92360.41;2115063;27;20031;-81
2023/12/06 01:48:06;;;;;;;0.20;0.20;;;;;;;1.85;100.00;92362.31;2106494;28;20030;-82
2023/12/06 01:49:10;;;;;;;0.20;0.20;;;;;;;1.91;100.00;92366.03;2106082;28;20032;-82
2023/12/06 01:50:13;;;;;;;0.20;0.20;;;;;;;1.97;100.00;92364.53;2105940;28;20020;-82
2023/12/06 01:51:17;;;;;;;0.20;0.20;;;;;;;1.89;100.00;92360.41;2113992;28;20463;-82
2023/12/06 01:52:18;;;;;;;0.20;0.20;;;;;;;1.94;100.00;92370.56;2124890;27;20487;-83
2023/12/06 01:53:19;;;;;;;0.20;0.20;;;;;;;1.98;100.00;92366.03;2124429;27;20098;-83
2023/12/06 01:54:20;;;;;;;0.30;0.30;;;;;;;2.00;100.00;92363.03;2115825;27;20061;-82
2023/12/06 01:55:21;;;;;;;0.30;0.30;;;;;;;2.05;100.00;92367.16;2120152;27;20086;-81
2023/12/06 01:56:22;;;;;;;0.28;0.28;;;;;;;2.10;100.00;92367.50;2120931;27;20023;-82
2023/12/06 01:57:28;;;;;;;0.45;0.25;;;;;;;2.15;100.00;92371.63;2117577;27;20388;-81
2023/12/06 01:58:29;;;;;;;0.30;0.30;;;;;;;2.15;100.00;92363.72;2118436;27;20024;-80
2023/12/06 01:59:31;;;;;;;0.30;0.30;;;;;;;2.06;100.00;92360.75;2130276;27;20025;-83
2023/12/06 02:00:32;;;;;;;0.30;0.30;;;;;;;2.05;100.00;92359.25;2129388;27;20386;-82
2023/12/06 02:01:34;;;;;;;0.20;0.20;;;;;;;2.27;100.00;92369.34;2128039;27;20036;-82
2023/12/06 02:02:39;;;;;;;0.25;0.25;;;;;;;2.20;100.00;92366.75;2111503;28;20019;-83
2023/12/06 02:03:40;;;;;;;0.30;0.30;;;;;;;2.33;100.00;92369.72;2108076;28;20051;-81
2023/12/06 02:04:41;;;;;;;0.40;0.40;;;;;;;2.34;100.00;92368.59;2108370;28;20035;-82
2023/12/06 02:05:44;;;;;;;0.30;0.30;;;;;;;2.29;100.00;92373.50;2111374;27;20023;-83
2023/12/06 02:06:46;;;;;;;0.30;0.30;;;;;;;2.21;100.00;92373.53;2122287;27;20600;-82
2023/12/06 02:07:48;;;;;;;0.30;0.30;;;;;;;2.19;100.00;92362.59;2114125;28;20352;-82
2023/12/06 02:08:50;;;;;;;0.20;0.20;;;;;;;2.14;100.00;92360.34;2111087;28;20024;-83
2023/12/06 02:09:51;;;;;;;0.25;0.25;;;;;;;2.03;100.00;92372.81;2120958;27;20026;-82
2023/12/06 02:10:52;;;;;;;0.35;0.25;;;;;;;1.92;100.00;92364.16;2122364;27;20023;-83
2023/12/06 02:11:53;;;;;;;0.30;0.30;;;;;;;1.89;100.00;92365.69;2130601;27;20075;-84
2023/12/06 02:12:54;;;;;;;0.70;0.70;;;;;;;1.88;100.00;92366.78;2131192;27;20067;-81
2023/12/06 02:13:56;;;;;;;0.82;0.30;;;;;;;1.91;100.00;92370.56;2130812;27;20373;-83
2023/12/06 02:14:59;;;;;;;0.30;0.30;;;;;;;1.95;100.00;92377.34;2121980;27;20022;-82
2023/12/06 02:16:01;;;;;;;0.22;0.22;;;;;;;2.05;100.00;92369.78;2113358;27;20027;-83
2023/12/06 02:17:03;;;;;;;0.28;0.28;;;;;;;2.04;100.00;92368.28;2121923;27;20414;-82
2023/12/06 02:18:04;;;;;;;0.30;0.30;;;;;;;1.93;100.00;92371.69;2113264;28;20388;-82
2023/12/06 02:19:11;;;;;;;0.35;0.28;;;;;;;1.95;100.00;92368.69;2113785;28;20106;-82
2023/12/06 02:20:12;;;;;;;0.40;0.40;;;;;;;1.96;100.00;92368.28;2113982;28;20042;-81
2023/12/06 02:21:14;;;;;;;0.20;0.20;;;;;;;1.87;100.00;92381.09;2113977;28;20061;-81
2023/12/06 02:22:15;;;;;;;0.38;0.38;;;;;;;1.93;100.00;92378.84;2113860;28;20046;-81
2023/12/06 02:23:16;;;;;;;0.30;0.30;;;;;;;1.87;100.00;92378.47;2105062;28;20705;-83
2023/12/06 02:24:18;;;;;;;1.38;1.27;;;;;;;1.87;100.00;92369.81;2117943;27;20105;-83
2023/12/06 02:25:20;;;;;;;3.03;1.65;;;;;;;1.88;100.00;92381.84;2114933;27;20051;-79
2023/12/06 02:26:21;;;;;;;1.45;0.80;;;;;;;1.88;100.00;92376.59;2117238;27;20024;-82
2023/12/06 02:27:22;;;;;;;0.40;0.40;;;;;;;1.87;100.00;92383.00;2111121;28;20522;-80
2023/12/06 02:28:23;;;;;;;0.82;0.40;;;;;;;1.87;100.00;92372.44;2106284;28;20527;-80
2023/12/06 02:29:24;;;;;;;0.32;0.22;;;;;;;1.86;100.00;92371.69;2110889;28;20027;-82
2023/12/06 02:30:25;;;;;;;0.40;0.40;;;;;;;1.92;100.00;92375.44;2114648;28;20034;-81
2023/12/06 02:31:26;;;;;;;0.32;0.30;;;;;;;1.98;100.00;92375.84;2101689;28;20445;-83
2023/12/06 02:32:27;;;;;;;0.68;0.68;;;;;;;1.97;100.00;92376.94;2119465;27;20023;-81
2023/12/06 02:34:01;;;;;;;0.50;0.50;;;;;;;1.97;100.00;92374.31;2125140;27;20030;-80
2023/12/06 02:35:08;;;;;;;0.40;0.40;;;;;;;1.88;100.00;92384.50;2122756;27;20065;-82
2023/12/06 02:36:10;;;;;;;0.40;0.40;;;;;;;1.87;100.00;92381.09;2129969;27;20105;-81
2023/12/06 02:37:14;;;;;;;0.30;0.30;;;;;;;1.87;100.00;92381.09;2122136;27;20088;-81
2023/12/06 02:40:15;;;;;;;0.40;0.40;;;;;;;1.94;100.00;92385.63;2124846;27;20026;-80
2023/12/06 02:41:18;;;;;;;0.43;0.30;;;;;;;1.79;100.00;92384.13;2122236;28;20450;-81
2023/12/06 02:42:19;;;;;;;0.38;0.30;;;;;;;1.85;100.00;92380.75;2119923;28;20080;-80
2023/12/06 02:43:20;;;;;;;0.30;0.30;;;;;;;1.76;100.00;92378.50;2122021;27;20605;-79
2023/12/06 02:44:21;;;;;;;0.30;0.30;;;;;;;1.82;100.00;92376.22;2129598;27;20030;-82
2023/12/06 02:45:22;;;;;;;0.30;0.30;;;;;;;1.82;100.00;92378.09;2121974;28;20023;-81
2023/12/06 02:46:30;;;;;;;0.30;0.30;;;;;;;1.72;100.00;92367.22;2104786;28;20357;-81
2023/12/06 02:47:31;;;;;;;0.30;0.30;;;;;;;1.74;100.00;92374.72;2111288;27;20086;-80
2023/12/06 02:48:32;;;;;;;0.30;0.30;;;;;;;1.87;100.00;92370.56;2122039;28;20382;-80
2023/12/06 02:49:33;;;;;;;0.30;0.30;;;;;;;1.88;100.00;92379.22;2122087;27;20651;-81
2023/12/06 02:50:34;;;;;;;0.30;0.30;;;;;;;1.87;100.00;92375.84;2121485;28;20020;-79
2023/12/06 02:51:35;;;;;;;0.20;0.20;;;;;;;1.81;100.00;92387.16;2122354;28;20082;-81
2023/12/06 02:52:37;;;;;;;0.30;0.30;;;;;;;1.88;100.00;92385.25;2122865;27;20027;-82
2023/12/06 02:53:37;;;;;;;0.30;0.30;;;;;;;1.83;100.00;92385.63;2113869;28;20460;-80
2023/12/06 02:54:39;;;;;;;0.25;0.25;;;;;;;1.78;100.00;92383.38;2104506;28;20062;-81
2023/12/06 02:55:40;;;;;;;0.30;0.30;;;;;;;1.71;100.00;92378.88;2121668;27;20023;-81
2023/12/06 02:56:41;;;;;;;0.30;0.30;;;;;;;1.74;100.00;92383.38;2119485;28;20073;-81
2023/12/06 02:57:44;;;;;;;0.40;0.40;;;;;;;1.83;100.00;92382.25;2120055;27;20012;-80
2023/12/06 02:58:59;;;;;;;0.32;0.30;;;;;;;1.71;100.00;92384.16;2107054;28;20547;-81
2023/12/06 03:00:00;;;;;;;0.28;0.28;;;;;;;1.79;100.00;92389.41;2109155;28;20032;-80
2023/12/06 03:01:01;;;;;;;0.20;0.20;;;;;;;1.72;100.00;92379.63;2113472;27;20027;-81
2023/12/06 03:02:02;;;;;;;0.30;0.30;;;;;;;1.77;100.00;92376.59;2126024;27;20027;-81
2023/12/06 03:03:03;;;;;;;0.20;0.20;;;;;;;1.80;100.00;92383.00;2122212;28;20023;-81
2023/12/06 03:04:05;;;;;;;0.30;0.30;;;;;;;1.75;100.00;92371.69;2127853;27;20030;-82
2023/12/06 03:05:06;;;;;;;0.20;0.20;;;;;;;1.82;100.00;92370.19;2129716;27;20033;-80
2023/12/06 03:06:07;;;;;;;0.30;0.30;;;;;;;1.83;100.00;92374.34;2130996;27;20055;-80
2023/12/06 03:07:12;;;;;;;0.35;0.35;;;;;;;1.87;100.00;92372.44;2130162;27;20685;-81
2023/12/06 03:08:14;;;;;;;0.32;0.32;;;;;;;1.95;100.00;92369.44;2130702;27;20022;-82
2023/12/06 03:09:15;;;;;;;0.30;0.30;;;;;;;1.90;100.00;92369.81;2130844;27;20502;-82
2023/12/06 03:10:16;;;;;;;0.30;0.30;;;;;;;1.85;100.00;92370.22;2130939;27;20046;-81
2023/12/06 03:11:19;;;;;;;0.20;0.20;;;;;;;1.90;100.00;92372.44;2130548;27;20022;-82
2023/12/06 03:12:20;;;;;;;0.30;0.30;;;;;;;1.84;100.00;92366.03;2130594;27;20015;-79
2023/12/06 03:13:21;;;;;;;0.82;0.30;;;;;;;1.84;100.00;92373.19;2122334;27;20034;-81
2023/12/06 03:14:22;;;;;;;0.30;0.30;;;;;;;1.70;100.00;92371.34;2113826;28;20103;-80
2023/12/06 03:15:23;;;;;;;0.30;0.30;;;;;;;1.68;100.00;92370.97;2113608;28;20821;-81
2023/12/06 03:16:23;;;;;;;0.75;0.45;;;;;;;1.70;100.00;92372.09;2113461;28;20023;-83
2023/12/06 03:17:25;;;;;;;0.70;0.60;;;;;;;1.70;100.00;92368.69;2108879;28;20076;-79
2023/12/06 03:18:27;;;;;;;0.70;0.70;;;;;;;1.70;100.00;92368.69;2100477;28;20097;-83
2023/12/06 03:19:27;;;;;;;0.75;0.60;;;;;;;1.68;100.00;92374.34;2100872;28;20134;-80
2023/12/06 03:20:28;;;;;;;0.82;0.50;;;;;;;1.62;100.00;92380.38;2122411;27;20141;-79
2023/12/06 03:21:29;;;;;;;0.50;0.50;;;;;;;1.75;100.00;92373.59;2122138;28;20023;-83
2023/12/06 03:22:30;;;;;;;0.73;0.60;;;;;;;1.75;100.00;92373.59;2126254;27;20017;-79
2023/12/06 03:23:31;;;;;;;0.40;0.40;;;;;;;1.66;100.00;92371.34;2122443;27;20484;-80
2023/12/06 03:24:34;;;;;;;0.40;0.40;;;;;;;1.91;100.00;92370.56;2122324;28;20081;-81
2023/12/06 03:25:36;;;;;;;0.50;0.50;;;;;;;1.92;100.00;92372.06;2113527;27;20023;-82
2023/12/06 03:26:37;;;;;;;0.70;0.70;;;;;;;1.87;100.00;92378.47;2124910;27;20015;-80
2023/12/06 03:27:45;;;;;;;0.77;0.77;;;;;;;1.82;100.00;92370.94;2117684;27;20064;-81
2023/12/06 03:28:46;;;;;;;0.60;0.60;;;;;;;1.77;100.00;92371.34;2116804;27;20437;-82
2023/12/06 03:29:47;;;;;;;0.50;0.50;;;;;;;1.88;100.00;92376.59;2124361;27;20100;-83
2023/12/06 03:30:48;;;;;;;0.63;0.60;;;;;;;1.73;100.00;92376.59;2124097;27;20110;-80
2023/12/06 03:31:55;;;;;;;0.40;0.40;;;;;;;1.85;100.00;92372.09;2118280;27;20640;-82
2023/12/06 03:32:56;;;;;;;0.40;0.40;;;;;;;1.87;100.00;92372.44;2123599;27;20068;-80
2023/12/06 03:33:57;;;;;;;0.60;0.60;;;;;;;1.80;100.00;92378.50;2119504;27;20112;-80
2023/12/06 03:34:57;;;;;;;0.63;0.40;;;;;;;1.83;100.00;92375.09;2122434;27;20107;-79
2023/12/06 03:35:58;;;;;;;0.50;0.40;;;;;;;1.81;100.00;92377.34;2131970;27;20027;-82
2023/12/06 03:37:00;;;;;;;1.75;0.40;;;;;;;1.73;100.00;92370.59;2123486;27;20492;-80
2023/12/06 03:38:01;;;;;;;1.00;0.50;;;;;;;1.79;100.00;92369.06;2123965;27;20023;-80
2023/12/06 03:39:02;;;;;;;0.40;0.40;;;;;;;1.77;100.00;92368.72;2131989;27;20513;-82
2023/12/06 03:40:04;;;;;;;0.40;0.40;;;;;;;1.66;100.00;92373.22;2107023;28;20024;-80
2023/12/06 03:41:05;;;;;;;0.40;0.40;;;;;;;1.76;100.00;92375.09;2106354;28;20031;-81
2023/12/06 03:42:06;;;;;;;0.35;0.30;;;;;;;1.75;100.00;92376.22;2114198;28;20023;-80
2023/12/06 03:43:07;;;;;;;0.40;0.40;;;;;;;1.81;100.00;92377.34;2123801;27;20031;-80
2023/12/06 03:44:08;;;;;;;1.40;0.40;;;;;;;1.84;100.00;92378.47;2124689;27;20047;-80
2023/12/06 03:45:12;;;;;;;0.40;0.40;;;;;;;1.81;100.00;92372.09;2114188;28;20028;-80
2023/12/06 03:46:13;;;;;;;1.38;0.40;;;;;;;1.72;100.00;92377.75;2111639;27;20020;-80
2023/12/06 03:47:14;;;;;;;0.95;0.50;;;;;;;1.72;100.00;92384.91;2132111;27;20021;-81
2023/12/06 03:48:15;;;;;;;1.55;0.30;;;;;;;1.80;100.00;92381.13;2117246;27;20039;-82
2023/12/06 03:49:16;;;;;;;0.30;0.30;;;;;;;1.75;100.00;92384.88;2115190;27;20346;-81
2023/12/06 03:50:17;;;;;;;0.57;0.40;;;;;;;1.66;100.00;92381.88;2119249;27;20138;-80
2023/12/06 03:51:18;;;;;;;0.68;0.40;;;;;;;1.80;100.00;92380.34;2098216;28;20059;-81
2023/12/06 03:52:18;;;;;;;0.40;0.40;;;;;;;1.79;100.00;92382.25;2114531;28;20052;-80
2023/12/06 03:53:19;;;;;;;0.75;0.60;;;;;;;1.79;100.00;92371.69;2115206;28;20613;-79
2023/12/06 03:54:20;;;;;;;0.63;0.40;;;;;;;1.71;100.00;92381.50;2106020;28;20650;-82
2023/12/06 03:55:21;;;;;;;0.65;0.50;;;;;;;1.67;100.00;92372.09;2107126;27;20055;-80
2023/12/06 03:56:22;;;;;;;0.90;0.40;;;;;;;1.96;100.00;92376.19;2127954;27;20027;-81
2023/12/06 03:57:23;;;;;;;1.35;0.30;;;;;;;1.92;100.00;92377.34;2129594;27;20128;-81
2023/12/06 03:58:24;;;;;;;0.30;0.30;;;;;;;1.93;100.00;92384.09;2109291;28;20115;-82
2023/12/06 03:59:28;;;;;;;0.50;0.40;;;;;;;1.72;100.00;92380.38;2108328;27;20080;-82
2023/12/06 04:00:30;;;;;;;1.83;0.30;;;;;;;1.74;100.00;92378.09;2119244;27;20672;-82
2023/12/06 04:01:31;;;;;;;0.30;0.30;;;;;;;1.65;100.00;92377.72;2111577;27;20120;-82
2023/12/06 04:02:34;;;;;;;0.55;0.40;;;;;;;1.63;100.00;92374.00;2104670;28;20073;-80
2023/12/06 04:03:35;;;;;;;0.40;0.40;;;;;;;1.51;100.00;92380.38;2111795;28;20024;-81
2023/12/06 04:04:36;;;;;;;0.30;0.30;;;;;;;1.62;100.00;92378.47;2131876;27;20029;-81
2023/12/06 04:05:37;;;;;;;0.75;0.38;;;;;;;1.58;100.00;92379.63;2129953;27;20046;-80
2023/12/06 04:06:38;;;;;;;0.40;0.40;;;;;;;1.62;100.00;92381.13;2129915;27;20037;-80
2023/12/06 04:07:39;;;;;;;0.73;0.73;;;;;;;1.56;100.00;92387.91;2123303;27;20019;-80
2023/12/06 04:08:40;;;;;;;1.15;0.60;;;;;;;1.54;100.00;92376.22;2123580;27;20027;-80
2023/12/06 04:09:41;;;;;;;0.98;0.60;;;;;;;1.55;100.00;92383.75;2114730;28;20023;-82
2023/12/06 04:10:42;;;;;;;0.45;0.45;;;;;;;1.70;100.00;92382.63;2112211;28;20441;-82
2023/12/06 04:11:44;;;;;;;0.75;0.47;;;;;;;1.69;100.00;92380.38;2114356;28;20027;-80
2023/12/06 04:12:45;;;;;;;0.35;0.35;;;;;;;1.66;100.00;92387.13;2123130;27;20099;-79
2023/12/06 04:13:46;;;;;;;0.57;0.40;;;;;;;1.50;100.00;92384.91;2114665;28;20023;-80
2023/12/06 04:14:47;;;;;;;0.98;0.38;;;;;;;1.46;100.00;92380.75;2114770;27;20047;-82
2023/12/06 04:15:48;;;;;;;0.40;0.40;;;;;;;1.50;100.00;92379.63;2123659;27;20371;-82
2023/12/06 04:16:50;;;;;;;0.40;0.40;;;;;;;1.56;100.00;92387.16;2115129;27;20030;-80
2023/12/06 04:17:51;;;;;;;1.13;0.60;;;;;;;1.68;100.00;92376.25;2127908;27;20495;-82
2023/12/06 04:18:52;;;;;;;1.60;0.40;;;;;;;1.71;100.00;92376.25;2123418;27;20027;-81
2023/12/06 04:19:53;;;;;;;0.60;0.50;;;;;;;1.94;100.00;92380.34;2115187;28;20030;-79
2023/12/06 04:20:54;;;;;;;0.40;0.40;;;;;;;1.99;100.00;92388.63;2122816;27;20049;-81
2023/12/06 04:21:55;;;;;;;0.40;0.40;;;;;;;1.89;100.00;92384.13;2114130;28;20074;-83
2023/12/06 04:22:56;;;;;;;0.57;0.40;;;;;;;1.94;100.00;92378.47;2114269;28;20031;-81
2023/12/06 04:23:57;;;;;;;1.13;0.30;;;;;;;1.91;100.00;92381.09;2114706;28;20024;-80
2023/12/06 04:24:58;;;;;;;0.40;0.40;;;;;;;1.88;100.00;92385.25;2106118;28;20035;-80
2023/12/06 04:25:58;;;;;;;0.45;0.45;;;;;;;1.80;100.00;92391.66;2111138;28;20463;-81
2023/12/06 04:26:59;;;;;;;0.75;0.43;;;;;;;1.72;100.00;92387.53;2107823;28;20438;-81
2023/12/06 04:28:00;;;;;;;1.17;0.40;;;;;;;1.64;100.00;92381.50;2129466;27;20698;-78
2023/12/06 04:29:01;;;;;;;0.40;0.40;;;;;;;1.85;100.00;92386.00;2120149;27;20479;-79
2023/12/06 04:30:05;;;;;;;0.43;0.40;;;;;;;1.88;100.00;92390.50;2125103;27;20035;-83
2023/12/06 04:31:06;;;;;;;2.03;0.60;;;;;;;1.83;100.00;92392.78;2119440;27;20023;-80
2023/12/06 04:32:14;;;;;;;0.70;0.50;;;;;;;1.89;100.00;92393.91;2112905;27;20391;-80
2023/12/06 04:33:15;;;;;;;0.38;0.38;;;;;;;1.74;100.00;92388.63;2130533;27;20023;-80
2023/12/06 04:34:16;;;;;;;0.93;0.40;;;;;;;1.79;100.00;92392.78;2122958;27;20089;-81
2023/12/06 04:35:17;;;;;;;1.63;0.40;;;;;;;1.73;100.00;92387.16;2114517;28;20027;-82
2023/12/06 04:36:18;;;;;;;0.55;0.45;;;;;;;1.59;100.00;92396.94;2114310;28;20057;-80
2023/12/06 04:37:19;;;;;;;2.85;0.40;;;;;;;1.58;100.00;92398.81;2123069;27;20105;-83
2023/12/06 04:38:20;;;;;;;1.13;0.47;;;;;;;1.65;100.00;92398.06;2114953;28;20023;-80
2023/12/06 04:39:21;;;;;;;0.52;0.50;;;;;;;1.59;100.00;92402.22;2106036;28;20070;-83
2023/12/06 04:40:22;;;;;;;0.40;0.40;;;;;;;1.65;100.00;92396.19;2106247;28;20537;-79
2023/12/06 04:41:23;;;;;;;0.40;0.40;;;;;;;1.68;100.00;92405.22;2106343;28;20035;-82
2023/12/06 04:42:24;;;;;;;0.55;0.52;;;;;;;1.68;100.00;92408.59;2113293;28;20050;-81
2023/12/06 04:43:25;;;;;;;1.42;0.40;;;;;;;1.78;100.00;92399.19;2114551;27;20479;-80
2023/12/06 04:44:26;;;;;;;0.40;0.40;;;;;;;1.67;100.00;92409.00;2123030;27;20439;-81
2023/12/06 04:45:27;;;;;;;0.40;0.40;;;;;;;1.64;100.00;92407.84;2122902;27;20172;-79
2023/12/06 04:46:28;;;;;;;0.45;0.40;;;;;;;1.66;100.00;92413.47;2105427;28;20484;-81
2023/12/06 04:47:29;;;;;;;1.98;0.50;;;;;;;1.64;100.00;92401.81;2114134;27;20068;-81
2023/12/06 04:48:30;;;;;;;0.85;0.47;;;;;;;1.57;100.00;92409.72;2123114;27;20023;-81
2023/12/06 04:49:31;;;;;;;0.60;0.60;;;;;;;1.58;100.00;92412.00;2123277;27;20103;-82
2023/12/06 04:50:32;;;;;;;0.40;0.40;;;;;;;1.70;100.00;92410.84;2122915;27;20031;-80
2023/12/06 04:51:33;;;;;;;1.05;0.50;;;;;;;1.75;100.00;92407.84;2114481;28;20046;-77
2023/12/06 04:52:34;;;;;;;1.77;0.50;;;;;;;1.81;100.00;92414.25;2105911;28;20411;-78
2023/12/06 04:53:35;;;;;;;1.27;1.08;;;;;;;1.95;100.00;92410.84;2106121;28;20020;-80
2023/12/06 04:54:36;;;;;;;0.30;0.30;;;;;;;1.91;100.00;92412.72;2110240;28;20062;-80
2023/12/06 04:55:37;;;;;;;2.42;0.50;;;;;;;2.10;100.00;92414.19;2131227;27;20211;-80